Terminal Aerodrome Forecast
Issued by NWS

Home | Current Version | Previous Version | Text Only | Print | Product List | Glossary On
Versions: 1 2 3 4 5 6 7 8 9 10 11 12 13
000
FTUS41 KBTV 231732
TAFRUT
TAF
KRUT 231732Z 2318/2418 26010G15KT P6SM BKN050
     FM240000 26006KT P6SM FEW150
     FM241100 VRB03KT P6SM FEW030=

USA.gov is the U.S. government's official web portal to all federal, state and local government web resources and services.